Molina, CO (81646)

8:32 PM MST on December 02, 2016 (GMT -0700)
Eagalite | | Change Station

Elev 5945 ft 39.23 °N, 108.00 °W | Updated 1 second ago

Scattered Clouds
Scattered Clouds
24.5 °F
Feels Like 24 °F
N
2.3
Wind Variable Wind from ENE
Gusts 2.3 mph

Today
High -- | Low -- °F
--% Chance of Precip.
Yesterday
High -- | Low -- °F
Precip. -- in
Pressure 30.21 in
Visibility 10.0 miles
Clouds Scattered Clouds 8000 ft
Windchill 24 °F
Dew Point 24 °F
Humidity 97%
Rainfall 0.00 in
Snow Depth Not available.
7:14 AM 4:49 PM
Waxing Crescent, 12% visible
METAR KGJT 030253Z 26004KT 10SM SCT080 00/M07 A3016 RMK AO2 SLP229 T00001072 51016
Pressure 30.21 in
Visibility 10.0 miles
Clouds Scattered Clouds 8000 ft
Windchill 24 °F
Dew Point 24 °F
Humidity 97%
Rainfall 0.00 in
Snow Depth Not available.
7:14 AM 4:49 PM
Waxing Crescent, 12% visible
METAR KGJT 030253Z 26004KT 10SM SCT080 00/M07 A3016 RMK AO2 SLP229 T00001072 51016

10-Day Weather Forecast

Almanac

Astronomy

Dec. 02, 2016 Rise Set
Actual Time
Civil Twilight
Nautical Twilight
Astronomical Twilight
Moon
Length of Visible Light
Length of Day
Tomorrow will be .
, % of the Moon is Illuminated

Today's Extremes

State Highs State Lows

Community

WunderPhotos

Upload Photos

1,955,406 photos uploaded!

WunderBlog® & News

Nearby

Air Quality

  Air Quality AQ Index Pollutant
Not available.

Snow Depth

Station Depth Elevation

Earthquake Activity

City Distance Mag. Time & Date
Minimum magnitude displayed is 2.5.

Coastal Water Temperatures

Place Temperature

Stations

Nearby Weather Stations

Station Location Temp. Windchill Dew Point Humidity Wind Precip. Elev Updated Type
                   

Watches & Warnings

There are currently no watches in effect.